sensor_id;sensor_type;location;lat;lon;timestamp;temperature;humidity
12477;DHT22;6303;51.504;6.300;2022-12-04T00:01:10;21.90;49.70
12477;DHT22;6303;51.504;6.300;2022-12-04T00:03:39;21.90;49.60
12477;DHT22;6303;51.504;6.300;2022-12-04T00:06:08;21.90;49.70
12477;DHT22;6303;51.504;6.300;2022-12-04T00:08:35;21.80;49.60
12477;DHT22;6303;51.504;6.300;2022-12-04T00:11:03;21.90;49.60
12477;DHT22;6303;51.504;6.300;2022-12-04T00:13:30;21.90;49.60
12477;DHT22;6303;51.504;6.300;2022-12-04T00:15:59;21.90;49.60
12477;DHT22;6303;51.504;6.300;2022-12-04T00:18:26;21.90;49.60
12477;DHT22;6303;51.504;6.300;2022-12-04T00:20:53;21.90;49.50
12477;DHT22;6303;51.504;6.300;2022-12-04T00:23:20;21.90;49.60
12477;DHT22;6303;51.504;6.300;2022-12-04T00:25:47;21.90;49.60
12477;DHT22;6303;51.504;6.300;2022-12-04T00:28:15;21.90;49.50
12477;DHT22;6303;51.504;6.300;2022-12-04T00:30:43;21.90;49.50
12477;DHT22;6303;51.504;6.300;2022-12-04T00:33:12;21.90;49.40
12477;DHT22;6303;51.504;6.300;2022-12-04T00:35:39;21.90;49.40
12477;DHT22;6303;51.504;6.300;2022-12-04T00:38:07;21.90;49.40
12477;DHT22;6303;51.504;6.300;2022-12-04T00:40:34;21.90;49.40
12477;DHT22;6303;51.504;6.300;2022-12-04T00:43:01;21.90;49.40
12477;DHT22;6303;51.504;6.300;2022-12-04T00:45:28;21.90;49.40
12477;DHT22;6303;51.504;6.300;2022-12-04T00:47:55;21.90;49.40
12477;DHT22;6303;51.504;6.300;2022-12-04T00:50:23;21.90;49.40
12477;DHT22;6303;51.504;6.300;2022-12-04T00:52:50;21.90;49.50
12477;DHT22;6303;51.504;6.300;2022-12-04T00:55:17;21.90;49.50
12477;DHT22;6303;51.504;6.300;2022-12-04T00:57:44;21.90;49.50
12477;DHT22;6303;51.504;6.300;2022-12-04T01:00:12;22.00;49.60
12477;DHT22;6303;51.504;6.300;2022-12-04T01:02:39;21.90;49.50
12477;DHT22;6303;51.504;6.300;2022-12-04T01:05:07;22.00;49.50
12477;DHT22;6303;51.504;6.300;2022-12-04T01:07:35;22.00;49.50
12477;DHT22;6303;51.504;6.300;2022-12-04T01:10:03;22.00;49.50
12477;DHT22;6303;51.504;6.300;2022-12-04T01:12:31;22.00;49.50
12477;DHT22;6303;51.504;6.300;2022-12-04T01:14:58;22.00;49.50
12477;DHT22;6303;51.504;6.300;2022-12-04T01:17:26;22.00;49.50
12477;DHT22;6303;51.504;6.300;2022-12-04T01:19:53;22.00;49.40
12477;DHT22;6303;51.504;6.300;2022-12-04T01:22:20;22.00;49.40
12477;DHT22;6303;51.504;6.300;2022-12-04T01:24:48;22.00;49.40
12477;DHT22;6303;51.504;6.300;2022-12-04T01:27:15;22.00;49.40
12477;DHT22;6303;51.504;6.300;2022-12-04T01:29:42;22.00;49.40
12477;DHT22;6303;51.504;6.300;2022-12-04T01:32:09;22.00;49.30
12477;DHT22;6303;51.504;6.300;2022-12-04T01:34:36;22.00;49.30
12477;DHT22;6303;51.504;6.300;2022-12-04T01:37:03;22.00;49.30
12477;DHT22;6303;51.504;6.300;2022-12-04T01:39:30;22.00;49.30
12477;DHT22;6303;51.504;6.300;2022-12-04T01:41:58;22.00;49.30
12477;DHT22;6303;51.504;6.300;2022-12-04T01:44:25;22.00;49.30
12477;DHT22;6303;51.504;6.300;2022-12-04T01:46:54;22.00;49.30
12477;DHT22;6303;51.504;6.300;2022-12-04T01:49:24;22.00;49.30
12477;DHT22;6303;51.504;6.300;2022-12-04T01:51:57;22.00;49.40
12477;DHT22;6303;51.504;6.300;2022-12-04T01:54:26;22.00;49.40
12477;DHT22;6303;51.504;6.300;2022-12-04T01:56:58;22.00;49.40
12477;DHT22;6303;51.504;6.300;2022-12-04T01:59:31;22.00;49.30
12477;DHT22;6303;51.504;6.300;2022-12-04T02:02:02;22.00;49.20
12477;DHT22;6303;51.504;6.300;2022-12-04T02:04:30;22.00;49.20
12477;DHT22;6303;51.504;6.300;2022-12-04T02:06:59;22.00;49.30
12477;DHT22;6303;51.504;6.300;2022-12-04T02:09:26;22.00;49.30
12477;DHT22;6303;51.504;6.300;2022-12-04T02:12:00;22.00;49.30
12477;DHT22;6303;51.504;6.300;2022-12-04T02:14:34;22.00;49.30
12477;DHT22;6303;51.504;6.300;2022-12-04T02:17:09;22.00;49.20
12477;DHT22;6303;51.504;6.300;2022-12-04T02:19:55;22.00;49.20
12477;DHT22;6303;51.504;6.300;2022-12-04T02:22:58;22.10;49.30
12477;DHT22;6303;51.504;6.300;2022-12-04T02:25:33;22.00;49.20
12477;DHT22;6303;51.504;6.300;2022-12-04T02:28:14;22.10;49.30
12477;DHT22;6303;51.504;6.300;2022-12-04T02:30:45;22.00;49.20
12477;DHT22;6303;51.504;6.300;2022-12-04T02:33:17;22.10;49.20
12477;DHT22;6303;51.504;6.300;2022-12-04T02:35:47;22.10;49.20
12477;DHT22;6303;51.504;6.300;2022-12-04T02:38:21;22.10;49.20
12477;DHT22;6303;51.504;6.300;2022-12-04T02:40:55;22.10;49.20
12477;DHT22;6303;51.504;6.300;2022-12-04T02:43:27;22.10;49.10
12477;DHT22;6303;51.504;6.300;2022-12-04T02:45:58;22.10;49.20
12477;DHT22;6303;51.504;6.300;2022-12-04T02:48:29;22.00;49.10
12477;DHT22;6303;51.504;6.300;2022-12-04T02:50:59;22.00;49.10
12477;DHT22;6303;51.504;6.300;2022-12-04T02:53:30;22.00;49.10
12477;DHT22;6303;51.504;6.300;2022-12-04T02:56:00;22.10;49.20
12477;DHT22;6303;51.504;6.300;2022-12-04T02:58:32;22.00;49.10
12477;DHT22;6303;51.504;6.300;2022-12-04T03:01:04;22.00;49.10
12477;DHT22;6303;51.504;6.300;2022-12-04T03:03:47;22.10;49.10
12477;DHT22;6303;51.504;6.300;2022-12-04T03:06:17;22.10;49.10
12477;DHT22;6303;51.504;6.300;2022-12-04T03:08:49;22.10;49.10
12477;DHT22;6303;51.504;6.300;2022-12-04T03:11:17;22.10;49.10
12477;DHT22;6303;51.504;6.300;2022-12-04T03:13:48;22.10;49.10
12477;DHT22;6303;51.504;6.300;2022-12-04T03:16:19;22.10;49.10
12477;DHT22;6303;51.504;6.300;2022-12-04T03:18:49;22.10;49.10
12477;DHT22;6303;51.504;6.300;2022-12-04T03:21:23;22.10;49.00
12477;DHT22;6303;51.504;6.300;2022-12-04T03:23:55;22.10;49.10
12477;DHT22;6303;51.504;6.300;2022-12-04T03:26:26;22.10;49.10
12477;DHT22;6303;51.504;6.300;2022-12-04T03:28:59;22.10;49.00
12477;DHT22;6303;51.504;6.300;2022-12-04T03:31:34;22.10;49.10
12477;DHT22;6303;51.504;6.300;2022-12-04T03:34:07;22.10;49.10
12477;DHT22;6303;51.504;6.300;2022-12-04T03:36:36;22.10;49.00
12477;DHT22;6303;51.504;6.300;2022-12-04T03:39:09;22.10;49.00
12477;DHT22;6303;51.504;6.300;2022-12-04T03:41:47;22.00;49.00
12477;DHT22;6303;51.504;6.300;2022-12-04T03:44:21;22.10;49.00
12477;DHT22;6303;51.504;6.300;2022-12-04T03:46:53;22.10;49.00
12477;DHT22;6303;51.504;6.300;2022-12-04T03:49:24;22.10;49.00
12477;DHT22;6303;51.504;6.300;2022-12-04T03:51:57;22.10;49.00
12477;DHT22;6303;51.504;6.300;2022-12-04T03:54:27;22.10;49.00
12477;DHT22;6303;51.504;6.300;2022-12-04T03:56:59;22.10;49.00
12477;DHT22;6303;51.504;6.300;2022-12-04T03:59:33;22.10;49.00
12477;DHT22;6303;51.504;6.300;2022-12-04T04:02:03;22.10;48.90
12477;DHT22;6303;51.504;6.300;2022-12-04T04:04:33;22.10;48.80
12477;DHT22;6303;51.504;6.300;2022-12-04T04:07:04;22.10;48.90
12477;DHT22;6303;51.504;6.300;2022-12-04T04:09:36;22.10;48.90
12477;DHT22;6303;51.504;6.300;2022-12-04T04:12:07;22.10;48.80
12477;DHT22;6303;51.504;6.300;2022-12-04T04:14:40;22.10;48.90
12477;DHT22;6303;51.504;6.300;2022-12-04T04:17:29;22.10;48.80
12477;DHT22;6303;51.504;6.300;2022-12-04T04:20:17;22.10;48.90
12477;DHT22;6303;51.504;6.300;2022-12-04T04:23:05;22.10;48.90
12477;DHT22;6303;51.504;6.300;2022-12-04T04:25:51;22.10;48.90
12477;DHT22;6303;51.504;6.300;2022-12-04T04:28:27;22.10;48.80
12477;DHT22;6303;51.504;6.300;2022-12-04T04:31:08;22.10;48.80
12477;DHT22;6303;51.504;6.300;2022-12-04T04:33:46;22.10;48.80
12477;DHT22;6303;51.504;6.300;2022-12-04T04:36:20;22.10;48.80
12477;DHT22;6303;51.504;6.300;2022-12-04T04:38:53;22.10;48.80
12477;DHT22;6303;51.504;6.300;2022-12-04T04:41:27;22.10;48.70
12477;DHT22;6303;51.504;6.300;2022-12-04T04:43:58;22.10;48.80
12477;DHT22;6303;51.504;6.300;2022-12-04T04:46:32;22.10;48.80
12477;DHT22;6303;51.504;6.300;2022-12-04T04:49:02;22.10;48.80
12477;DHT22;6303;51.504;6.300;2022-12-04T04:51:33;22.10;48.70
12477;DHT22;6303;51.504;6.300;2022-12-04T04:54:04;22.10;48.70
12477;DHT22;6303;51.504;6.300;2022-12-04T04:56:39;22.10;48.70
12477;DHT22;6303;51.504;6.300;2022-12-04T04:59:06;22.10;48.70
12477;DHT22;6303;51.504;6.300;2022-12-04T05:01:34;22.10;48.70
12477;DHT22;6303;51.504;6.300;2022-12-04T05:04:02;22.10;48.70
12477;DHT22;6303;51.504;6.300;2022-12-04T05:06:30;22.10;48.70
12477;DHT22;6303;51.504;6.300;2022-12-04T05:08:57;22.00;48.60
12477;DHT22;6303;51.504;6.300;2022-12-04T05:11:24;22.10;48.70
12477;DHT22;6303;51.504;6.300;2022-12-04T05:13:51;22.10;48.70
12477;DHT22;6303;51.504;6.300;2022-12-04T05:16:19;22.10;48.70
12477;DHT22;6303;51.504;6.300;2022-12-04T05:18:47;22.10;48.70
12477;DHT22;6303;51.504;6.300;2022-12-04T05:21:29;22.00;48.50
12477;DHT22;6303;51.504;6.300;2022-12-04T05:23:56;22.10;48.60
12477;DHT22;6303;51.504;6.300;2022-12-04T05:26:23;22.10;48.60
12477;DHT22;6303;51.504;6.300;2022-12-04T05:28:50;22.10;48.50
12477;DHT22;6303;51.504;6.300;2022-12-04T05:31:17;22.10;48.60
12477;DHT22;6303;51.504;6.300;2022-12-04T05:33:44;22.10;48.60
12477;DHT22;6303;51.504;6.300;2022-12-04T05:36:13;22.10;48.60
12477;DHT22;6303;51.504;6.300;2022-12-04T05:38:40;22.10;48.60
12477;DHT22;6303;51.504;6.300;2022-12-04T05:41:07;22.10;48.50
12477;DHT22;6303;51.504;6.300;2022-12-04T05:43:35;23.30;49.10
12477;DHT22;6303;51.504;6.300;2022-12-04T05:46:03;22.10;48.50
12477;DHT22;6303;51.504;6.300;2022-12-04T05:48:31;22.10;48.50
12477;DHT22;6303;51.504;6.300;2022-12-04T05:50:59;22.10;48.50
12477;DHT22;6303;51.504;6.300;2022-12-04T05:53:28;22.10;48.50
12477;DHT22;6303;51.504;6.300;2022-12-04T05:55:55;22.10;48.50
12477;DHT22;6303;51.504;6.300;2022-12-04T05:58:23;22.10;48.50
12477;DHT22;6303;51.504;6.300;2022-12-04T06:00:50;22.10;48.50
12477;DHT22;6303;51.504;6.300;2022-12-04T06:03:17;22.10;48.50
12477;DHT22;6303;51.504;6.300;2022-12-04T06:05:44;22.10;48.40
12477;DHT22;6303;51.504;6.300;2022-12-04T06:08:11;22.10;48.40
12477;DHT22;6303;51.504;6.300;2022-12-04T06:10:40;22.10;48.40
12477;DHT22;6303;51.504;6.300;2022-12-04T06:13:07;22.10;48.40
12477;DHT22;6303;51.504;6.300;2022-12-04T06:15:36;22.10;48.40
12477;DHT22;6303;51.504;6.300;2022-12-04T06:18:04;22.10;48.40
12477;DHT22;6303;51.504;6.300;2022-12-04T06:20:31;22.10;48.40
12477;DHT22;6303;51.504;6.300;2022-12-04T06:22:58;22.10;48.40
12477;DHT22;6303;51.504;6.300;2022-12-04T06:25:25;22.10;48.40
12477;DHT22;6303;51.504;6.300;2022-12-04T06:27:54;22.10;48.40
12477;DHT22;6303;51.504;6.300;2022-12-04T06:30:21;22.10;48.40
12477;DHT22;6303;51.504;6.300;2022-12-04T06:32:48;22.10;48.40
12477;DHT22;6303;51.504;6.300;2022-12-04T06:35:15;22.10;48.40
12477;DHT22;6303;51.504;6.300;2022-12-04T06:37:42;22.10;48.40
12477;DHT22;6303;51.504;6.300;2022-12-04T06:40:10;22.10;48.40
12477;DHT22;6303;51.504;6.300;2022-12-04T06:42:37;22.10;48.40
12477;DHT22;6303;51.504;6.300;2022-12-04T06:45:07;22.10;48.30
12477;DHT22;6303;51.504;6.300;2022-12-04T06:47:34;22.10;48.30
12477;DHT22;6303;51.504;6.300;2022-12-04T06:50:02;22.10;48.30
12477;DHT22;6303;51.504;6.300;2022-12-04T06:52:31;22.10;48.30
12477;DHT22;6303;51.504;6.300;2022-12-04T06:54:59;22.10;48.30
12477;DHT22;6303;51.504;6.300;2022-12-04T06:57:26;22.10;48.20
12477;DHT22;6303;51.504;6.300;2022-12-04T06:59:53;22.10;48.30
12477;DHT22;6303;51.504;6.300;2022-12-04T07:02:21;22.10;48.30
12477;DHT22;6303;51.504;6.300;2022-12-04T07:04:48;22.10;48.30
12477;DHT22;6303;51.504;6.300;2022-12-04T07:07:19;22.10;48.30
12477;DHT22;6303;51.504;6.300;2022-12-04T07:09:46;22.10;48.30
12477;DHT22;6303;51.504;6.300;2022-12-04T07:12:13;22.10;48.30
12477;DHT22;6303;51.504;6.300;2022-12-04T07:14:40;22.10;48.20
12477;DHT22;6303;51.504;6.300;2022-12-04T07:17:07;22.10;48.20
12477;DHT22;6303;51.504;6.300;2022-12-04T07:19:36;22.10;48.20
12477;DHT22;6303;51.504;6.300;2022-12-04T07:22:03;22.10;48.90
12477;DHT22;6303;51.504;6.300;2022-12-04T07:24:30;22.10;48.20
12477;DHT22;6303;51.504;6.300;2022-12-04T07:26:57;22.10;48.20
12477;DHT22;6303;51.504;6.300;2022-12-04T07:29:25;22.20;48.20
12477;DHT22;6303;51.504;6.300;2022-12-04T07:31:52;22.20;48.20
12477;DHT22;6303;51.504;6.300;2022-12-04T07:34:19;21.10;47.60
12477;DHT22;6303;51.504;6.300;2022-12-04T07:36:47;22.10;48.20
12477;DHT22;6303;51.504;6.300;2022-12-04T07:39:14;22.00;48.40
12477;DHT22;6303;51.504;6.300;2022-12-04T07:41:41;22.00;48.30
12477;DHT22;6303;51.504;6.300;2022-12-04T07:44:08;21.90;48.40
12477;DHT22;6303;51.504;6.300;2022-12-04T07:46:35;21.90;48.80
12477;DHT22;6303;51.504;6.300;2022-12-04T07:49:02;21.90;49.00
12477;DHT22;6303;51.504;6.300;2022-12-04T07:51:29;21.90;49.30
12477;DHT22;6303;51.504;6.300;2022-12-04T07:53:58;21.90;49.40
12477;DHT22;6303;51.504;6.300;2022-12-04T07:56:25;21.90;49.40
12477;DHT22;6303;51.504;6.300;2022-12-04T07:58:52;21.90;49.40
12477;DHT22;6303;51.504;6.300;2022-12-04T08:01:20;21.90;49.30
12477;DHT22;6303;51.504;6.300;2022-12-04T08:03:49;22.00;49.20
12477;DHT22;6303;51.504;6.300;2022-12-04T08:06:18;22.00;49.10
12477;DHT22;6303;51.504;6.300;2022-12-04T08:08:46;22.00;49.00
12477;DHT22;6303;51.504;6.300;2022-12-04T08:11:16;22.00;49.00
12477;DHT22;6303;51.504;6.300;2022-12-04T08:13:44;22.00;48.90
12477;DHT22;6303;51.504;6.300;2022-12-04T08:16:11;22.00;48.90
12477;DHT22;6303;51.504;6.300;2022-12-04T08:18:38;19.50;47.60
12477;DHT22;6303;51.504;6.300;2022-12-04T08:21:08;22.00;48.90
12477;DHT22;6303;51.504;6.300;2022-12-04T08:23:35;22.00;48.70
12477;DHT22;6303;51.504;6.300;2022-12-04T08:26:03;22.40;48.90
12477;DHT22;6303;51.504;6.300;2022-12-04T08:28:32;22.10;48.80
12477;DHT22;6303;51.504;6.300;2022-12-04T08:31:01;22.10;48.80
12477;DHT22;6303;51.504;6.300;2022-12-04T08:33:29;22.10;48.70
12477;DHT22;6303;51.504;6.300;2022-12-04T08:35:56;22.10;48.70
12477;DHT22;6303;51.504;6.300;2022-12-04T08:38:23;22.10;48.70
12477;DHT22;6303;51.504;6.300;2022-12-04T08:40:50;22.10;48.70
12477;DHT22;6303;51.504;6.300;2022-12-04T08:43:17;22.10;48.80
12477;DHT22;6303;51.504;6.300;2022-12-04T08:45:54;22.10;48.80
12477;DHT22;6303;51.504;6.300;2022-12-04T08:48:21;22.10;48.70
12477;DHT22;6303;51.504;6.300;2022-12-04T08:50:48;22.20;48.60
12477;DHT22;6303;51.504;6.300;2022-12-04T08:53:15;22.10;48.50
12477;DHT22;6303;51.504;6.300;2022-12-04T08:55:42;24.50;49.70
12477;DHT22;6303;51.504;6.300;2022-12-04T08:58:09;22.10;48.50
12477;DHT22;6303;51.504;6.300;2022-12-04T09:00:36;22.10;48.50
12477;DHT22;6303;51.504;6.300;2022-12-04T09:03:05;22.10;48.50
12477;DHT22;6303;51.504;6.300;2022-12-04T09:05:32;22.20;48.40
12477;DHT22;6303;51.504;6.300;2022-12-04T09:07:59;22.20;48.40
12477;DHT22;6303;51.504;6.300;2022-12-04T09:10:26;22.20;48.40
12477;DHT22;6303;51.504;6.300;2022-12-04T09:12:53;22.20;48.40
12477;DHT22;6303;51.504;6.300;2022-12-04T09:15:21;22.20;48.40
12477;DHT22;6303;51.504;6.300;2022-12-04T09:17:48;22.20;48.30
12477;DHT22;6303;51.504;6.300;2022-12-04T09:20:16;22.20;48.30
12477;DHT22;6303;51.504;6.300;2022-12-04T09:22:43;22.20;48.30
12477;DHT22;6303;51.504;6.300;2022-12-04T09:25:10;22.20;48.20
12477;DHT22;6303;51.504;6.300;2022-12-04T09:27:38;22.20;48.20
12477;DHT22;6303;51.504;6.300;2022-12-04T09:30:07;22.20;48.20
12477;DHT22;6303;51.504;6.300;2022-12-04T09:32:34;22.20;48.20
12477;DHT22;6303;51.504;6.300;2022-12-04T09:35:01;22.20;48.20
12477;DHT22;6303;51.504;6.300;2022-12-04T09:37:30;22.20;48.20
12477;DHT22;6303;51.504;6.300;2022-12-04T09:39:57;22.20;48.20
12477;DHT22;6303;51.504;6.300;2022-12-04T09:42:33;22.20;48.10
12477;DHT22;6303;51.504;6.300;2022-12-04T09:45:08;22.20;48.10
12477;DHT22;6303;51.504;6.300;2022-12-04T09:47:38;22.20;48.10
12477;DHT22;6303;51.504;6.300;2022-12-04T09:50:14;22.20;48.10
12477;DHT22;6303;51.504;6.300;2022-12-04T09:52:50;22.20;48.10
12477;DHT22;6303;51.504;6.300;2022-12-04T09:55:24;22.20;48.10
12477;DHT22;6303;51.504;6.300;2022-12-04T09:57:54;22.20;48.10
12477;DHT22;6303;51.504;6.300;2022-12-04T10:00:24;22.20;48.00
12477;DHT22;6303;51.504;6.300;2022-12-04T10:02:56;22.20;48.10
12477;DHT22;6303;51.504;6.300;2022-12-04T10:05:33;22.20;48.00
12477;DHT22;6303;51.504;6.300;2022-12-04T10:08:08;22.20;47.90
12477;DHT22;6303;51.504;6.300;2022-12-04T10:10:39;22.20;47.90
12477;DHT22;6303;51.504;6.300;2022-12-04T10:13:31;22.20;48.00
12477;DHT22;6303;51.504;6.300;2022-12-04T10:16:10;22.20;47.90
12477;DHT22;6303;51.504;6.300;2022-12-04T10:18:45;22.30;48.00
12477;DHT22;6303;51.504;6.300;2022-12-04T10:21:32;22.30;48.00
12477;DHT22;6303;51.504;6.300;2022-12-04T10:24:17;22.30;48.10
12477;DHT22;6303;51.504;6.300;2022-12-04T10:26:47;22.30;48.00
12477;DHT22;6303;51.504;6.300;2022-12-04T10:29:18;22.30;47.90
12477;DHT22;6303;51.504;6.300;2022-12-04T10:31:47;22.30;47.90
12477;DHT22;6303;51.504;6.300;2022-12-04T10:34:18;22.30;47.90
12477;DHT22;6303;51.504;6.300;2022-12-04T10:36:51;22.30;47.90
12477;DHT22;6303;51.504;6.300;2022-12-04T10:39:23;22.30;47.80
12477;DHT22;6303;51.504;6.300;2022-12-04T10:41:56;22.30;47.80
12477;DHT22;6303;51.504;6.300;2022-12-04T10:44:24;22.30;47.80
12477;DHT22;6303;51.504;6.300;2022-12-04T10:46:54;22.30;47.80
12477;DHT22;6303;51.504;6.300;2022-12-04T10:49:25;22.30;47.80
12477;DHT22;6303;51.504;6.300;2022-12-04T10:51:53;22.30;47.80
12477;DHT22;6303;51.504;6.300;2022-12-04T10:54:26;22.30;47.80
12477;DHT22;6303;51.504;6.300;2022-12-04T10:56:57;22.30;47.80
12477;DHT22;6303;51.504;6.300;2022-12-04T10:59:25;22.30;47.70
12477;DHT22;6303;51.504;6.300;2022-12-04T11:02:01;22.30;47.80
12477;DHT22;6303;51.504;6.300;2022-12-04T11:04:30;22.30;47.60
12477;DHT22;6303;51.504;6.300;2022-12-04T11:07:01;22.30;47.70
12477;DHT22;6303;51.504;6.300;2022-12-04T11:09:30;22.30;47.70
12477;DHT22;6303;51.504;6.300;2022-12-04T11:12:05;22.30;47.70
12477;DHT22;6303;51.504;6.300;2022-12-04T11:14:33;22.30;47.70
12477;DHT22;6303;51.504;6.300;2022-12-04T11:17:02;22.30;47.60
12477;DHT22;6303;51.504;6.300;2022-12-04T11:19:31;22.30;47.70
12477;DHT22;6303;51.504;6.300;2022-12-04T11:22:04;22.30;47.60
12477;DHT22;6303;51.504;6.300;2022-12-04T11:24:35;22.30;47.60
12477;DHT22;6303;51.504;6.300;2022-12-04T11:27:04;22.30;47.60
12477;DHT22;6303;51.504;6.300;2022-12-04T11:29:34;22.30;47.60
12477;DHT22;6303;51.504;6.300;2022-12-04T11:32:03;22.30;47.60
12477;DHT22;6303;51.504;6.300;2022-12-04T11:34:34;22.30;47.60
12477;DHT22;6303;51.504;6.300;2022-12-04T11:37:02;22.30;47.60
12477;DHT22;6303;51.504;6.300;2022-12-04T11:39:33;22.30;47.60
12477;DHT22;6303;51.504;6.300;2022-12-04T11:42:04;22.30;47.50
12477;DHT22;6303;51.504;6.300;2022-12-04T11:44:33;22.30;47.60
12477;DHT22;6303;51.504;6.300;2022-12-04T11:47:02;22.30;47.50
12477;DHT22;6303;51.504;6.300;2022-12-04T11:49:30;22.30;47.50
12477;DHT22;6303;51.504;6.300;2022-12-04T11:52:12;22.30;47.50
12477;DHT22;6303;51.504;6.300;2022-12-04T11:54:54;22.30;47.60
12477;DHT22;6303;51.504;6.300;2022-12-04T11:57:26;22.30;47.50
12477;DHT22;6303;51.504;6.300;2022-12-04T12:00:04;22.30;47.50
12477;DHT22;6303;51.504;6.300;2022-12-04T12:02:59;22.40;47.60
12477;DHT22;6303;51.504;6.300;2022-12-04T12:05:42;22.30;47.50
12477;DHT22;6303;51.504;6.300;2022-12-04T12:08:23;22.30;47.50
12477;DHT22;6303;51.504;6.300;2022-12-04T12:11:00;22.30;47.50
12477;DHT22;6303;51.504;6.300;2022-12-04T12:13:37;22.40;47.50
12477;DHT22;6303;51.504;6.300;2022-12-04T12:16:14;22.40;47.50
12477;DHT22;6303;51.504;6.300;2022-12-04T12:21:37;22.40;47.50
12477;DHT22;6303;51.504;6.300;2022-12-04T12:24:24;22.40;47.50
12477;DHT22;6303;51.504;6.300;2022-12-04T12:27:00;22.40;47.50
12477;DHT22;6303;51.504;6.300;2022-12-04T12:29:42;22.40;47.50
12477;DHT22;6303;51.504;6.300;2022-12-04T12:32:20;22.40;47.40
12477;DHT22;6303;51.504;6.300;2022-12-04T12:34:50;22.40;47.50
12477;DHT22;6303;51.504;6.300;2022-12-04T12:37:21;22.40;47.50
12477;DHT22;6303;51.504;6.300;2022-12-04T12:39:56;22.40;47.50
12477;DHT22;6303;51.504;6.300;2022-12-04T12:42:29;22.40;47.50
12477;DHT22;6303;51.504;6.300;2022-12-04T12:45:02;22.40;47.50
12477;DHT22;6303;51.504;6.300;2022-12-04T12:47:33;22.40;47.50
12477;DHT22;6303;51.504;6.300;2022-12-04T12:50:08;22.40;47.50
12477;DHT22;6303;51.504;6.300;2022-12-04T12:52:40;22.40;47.40
12477;DHT22;6303;51.504;6.300;2022-12-04T12:55:15;22.70;47.60
12477;DHT22;6303;51.504;6.300;2022-12-04T12:57:48;22.40;47.40
12477;DHT22;6303;51.504;6.300;2022-12-04T13:00:18;22.40;47.40
12477;DHT22;6303;51.504;6.300;2022-12-04T13:02:48;22.40;47.40
12477;DHT22;6303;51.504;6.300;2022-12-04T13:05:20;22.40;47.40
12477;DHT22;6303;51.504;6.300;2022-12-04T13:07:57;22.40;47.40
12477;DHT22;6303;51.504;6.300;2022-12-04T13:10:29;22.40;47.40
12477;DHT22;6303;51.504;6.300;2022-12-04T13:13:03;22.40;47.50
12477;DHT22;6303;51.504;6.300;2022-12-04T13:15:37;22.40;47.50
12477;DHT22;6303;51.504;6.300;2022-12-04T13:18:06;22.40;47.50
12477;DHT22;6303;51.504;6.300;2022-12-04T13:20:41;22.40;47.40
12477;DHT22;6303;51.504;6.300;2022-12-04T13:23:32;22.40;47.40
12477;DHT22;6303;51.504;6.300;2022-12-04T13:26:07;22.40;47.40
12477;DHT22;6303;51.504;6.300;2022-12-04T13:28:47;22.40;47.40
12477;DHT22;6303;51.504;6.300;2022-12-04T13:31:24;22.40;47.40
12477;DHT22;6303;51.504;6.300;2022-12-04T13:34:02;22.40;47.30
12477;DHT22;6303;51.504;6.300;2022-12-04T13:36:51;22.40;47.30
12477;DHT22;6303;51.504;6.300;2022-12-04T13:39:43;22.40;47.40
12477;DHT22;6303;51.504;6.300;2022-12-04T13:42:21;22.40;47.40
12477;DHT22;6303;51.504;6.300;2022-12-04T13:44:56;22.40;47.40
12477;DHT22;6303;51.504;6.300;2022-12-04T13:47:28;22.40;47.40
12477;DHT22;6303;51.504;6.300;2022-12-04T13:50:08;22.40;47.40
12477;DHT22;6303;51.504;6.300;2022-12-04T13:52:47;22.40;47.40
12477;DHT22;6303;51.504;6.300;2022-12-04T13:55:27;22.40;47.40
12477;DHT22;6303;51.504;6.300;2022-12-04T13:57:56;22.40;47.40
12477;DHT22;6303;51.504;6.300;2022-12-04T14:00:27;22.50;47.50
12477;DHT22;6303;51.504;6.300;2022-12-04T14:02:58;22.40;47.50
12477;DHT22;6303;51.504;6.300;2022-12-04T14:05:28;22.40;47.50
12477;DHT22;6303;51.504;6.300;2022-12-04T14:08:01;22.40;47.50
12477;DHT22;6303;51.504;6.300;2022-12-04T14:10:30;22.40;47.50
12477;DHT22;6303;51.504;6.300;2022-12-04T14:13:02;22.40;47.60
12477;DHT22;6303;51.504;6.300;2022-12-04T14:15:33;22.50;47.60
12477;DHT22;6303;51.504;6.300;2022-12-04T14:18:05;22.50;47.60
12477;DHT22;6303;51.504;6.300;2022-12-04T14:20:43;22.50;47.60
12477;DHT22;6303;51.504;6.300;2022-12-04T14:23:23;22.50;47.60
12477;DHT22;6303;51.504;6.300;2022-12-04T14:25:52;22.50;47.70
12477;DHT22;6303;51.504;6.300;2022-12-04T14:28:26;22.50;47.70
12477;DHT22;6303;51.504;6.300;2022-12-04T14:31:13;22.50;47.70
12477;DHT22;6303;51.504;6.300;2022-12-04T14:33:46;22.50;47.70
12477;DHT22;6303;51.504;6.300;2022-12-04T14:36:18;22.50;47.80
12477;DHT22;6303;51.504;6.300;2022-12-04T14:38:47;22.50;47.60
12477;DHT22;6303;51.504;6.300;2022-12-04T14:41:23;22.50;47.70
12477;DHT22;6303;51.504;6.300;2022-12-04T14:43:50;22.50;47.70
12477;DHT22;6303;51.504;6.300;2022-12-04T14:46:22;22.50;47.60
12477;DHT22;6303;51.504;6.300;2022-12-04T14:48:56;22.50;47.60
12477;DHT22;6303;51.504;6.300;2022-12-04T14:51:32;22.50;47.70
12477;DHT22;6303;51.504;6.300;2022-12-04T14:54:06;22.50;47.70
12477;DHT22;6303;51.504;6.300;2022-12-04T14:56:46;22.50;47.70
12477;DHT22;6303;51.504;6.300;2022-12-04T14:59:17;22.50;47.80
12477;DHT22;6303;51.504;6.300;2022-12-04T15:01:48;22.50;47.80
12477;DHT22;6303;51.504;6.300;2022-12-04T15:04:22;22.50;47.80
12477;DHT22;6303;51.504;6.300;2022-12-04T15:06:50;22.50;47.80
12477;DHT22;6303;51.504;6.300;2022-12-04T15:09:19;22.40;47.80
12477;DHT22;6303;51.504;6.300;2022-12-04T15:12:15;22.40;47.90
12477;DHT22;6303;51.504;6.300;2022-12-04T15:15:07;22.40;47.80
12477;DHT22;6303;51.504;6.300;2022-12-04T15:17:38;22.50;47.80
12477;DHT22;6303;51.504;6.300;2022-12-04T15:20:12;22.50;47.80
12477;DHT22;6303;51.504;6.300;2022-12-04T15:22:41;22.50;47.60
12477;DHT22;6303;51.504;6.300;2022-12-04T15:25:14;22.50;47.60
12477;DHT22;6303;51.504;6.300;2022-12-04T15:27:42;22.50;47.60
12477;DHT22;6303;51.504;6.300;2022-12-04T15:30:15;22.50;47.60
12477;DHT22;6303;51.504;6.300;2022-12-04T15:32:44;22.50;47.60
12477;DHT22;6303;51.504;6.300;2022-12-04T15:35:18;22.50;47.60
12477;DHT22;6303;51.504;6.300;2022-12-04T15:37:45;22.50;47.60
12477;DHT22;6303;51.504;6.300;2022-12-04T15:40:19;22.50;47.60
12477;DHT22;6303;51.504;6.300;2022-12-04T15:42:47;22.50;47.60
12477;DHT22;6303;51.504;6.300;2022-12-04T15:45:28;22.50;47.60
12477;DHT22;6303;51.504;6.300;2022-12-04T15:48:00;22.50;47.60
12477;DHT22;6303;51.504;6.300;2022-12-04T15:50:28;22.50;47.60
12477;DHT22;6303;51.504;6.300;2022-12-04T15:52:59;22.50;47.60
12477;DHT22;6303;51.504;6.300;2022-12-04T15:55:28;22.50;47.60
12477;DHT22;6303;51.504;6.300;2022-12-04T15:57:58;22.50;47.70
12477;DHT22;6303;51.504;6.300;2022-12-04T16:00:28;22.50;47.70
12477;DHT22;6303;51.504;6.300;2022-12-04T16:02:56;22.50;47.70
12477;DHT22;6303;51.504;6.300;2022-12-04T16:05:30;22.50;47.70
12477;DHT22;6303;51.504;6.300;2022-12-04T16:08:02;22.50;48.20
12477;DHT22;6303;51.504;6.300;2022-12-04T16:10:31;22.50;47.50
12477;DHT22;6303;51.504;6.300;2022-12-04T16:13:00;22.50;47.60